createdAt,value
2022-10-17T00:01:24.979Z,16.2
2022-10-17T00:16:24.927Z,16.4
2022-10-17T00:31:24.929Z,16.4
2022-10-17T00:46:24.919Z,16.5
2022-10-17T01:01:25.020Z,16.5
2022-10-17T01:16:24.973Z,16.7
2022-10-17T01:31:24.970Z,16.6
2022-10-17T01:46:24.950Z,16.9
2022-10-17T02:01:25.000Z,16.8
2022-10-17T02:16:24.923Z,16.8
2022-10-17T02:31:24.919Z,16.8
2022-10-17T02:46:24.921Z,16.2
2022-10-17T03:01:24.942Z,15.9
2022-10-17T03:16:24.930Z,16.1
2022-10-17T03:31:24.927Z,15.9
2022-10-17T03:46:24.926Z,16.6
2022-10-17T04:01:24.985Z,16.6
2022-10-17T04:16:24.929Z,16.9
2022-10-17T04:31:24.975Z,17.1
2022-10-17T04:46:24.929Z,17.2
2022-10-17T05:01:25.024Z,17.5
2022-10-17T05:16:24.927Z,17.1
2022-10-17T05:31:24.959Z,16.9
2022-10-17T05:46:24.935Z,16.8
2022-10-17T06:01:24.955Z,16.4
2022-10-17T06:16:24.929Z,16.5
2022-10-17T06:31:24.929Z,16.6
2022-10-17T06:46:24.925Z,16.8
2022-10-17T07:01:24.973Z,16.8
2022-10-17T07:16:24.978Z,16.8
2022-10-17T07:31:24.976Z,17.4
2022-10-17T07:46:24.926Z,17.6
2022-10-17T08:01:24.923Z,17.9
2022-10-17T08:16:24.929Z,18.1
2022-10-17T08:31:24.928Z,18
2022-10-17T08:46:24.942Z,18.4
2022-10-17T09:01:24.928Z,18.8
2022-10-17T09:16:24.930Z,18.9
2022-10-17T09:31:24.928Z,18.9
2022-10-17T09:46:24.924Z,18.8
2022-10-17T10:01:24.957Z,18.9
2022-10-17T10:16:25.197Z,19.2
2022-10-17T10:31:24.995Z,18.9
2022-10-17T10:46:24.967Z,19.4
2022-10-17T11:01:24.971Z,19.8
2022-10-17T11:16:24.927Z,19.9
2022-10-17T11:31:24.922Z,19.9
2022-10-17T11:46:24.931Z,19.9
2022-10-17T12:01:24.973Z,19.8
2022-10-17T12:16:25.000Z,19.8
2022-10-17T12:31:27.433Z,19.6
2022-10-17T12:46:24.940Z,19.4
2022-10-17T13:01:25.101Z,19.4
2022-10-17T13:16:24.938Z,19.4
2022-10-17T13:31:24.936Z,19.4
2022-10-17T13:46:36.582Z,19.3
2022-10-17T14:01:24.928Z,19.3
2022-10-17T14:16:24.934Z,19.2
2022-10-17T14:31:25.027Z,19
2022-10-17T14:46:24.971Z,18.4
2022-10-17T15:01:24.925Z,18.1
2022-10-17T15:16:24.972Z,17.9
2022-10-17T15:31:24.978Z,17.2
2022-10-17T15:46:24.931Z,16.8
2022-10-17T16:01:25.037Z,16.8
2022-10-17T16:16:24.929Z,16.4
2022-10-17T16:31:24.968Z,16.4
2022-10-17T16:46:24.924Z,16.2
2022-10-17T17:01:24.936Z,16.1
2022-10-17T17:16:24.929Z,15.9
2022-10-17T17:31:24.933Z,15.8
2022-10-17T17:46:24.985Z,15.6
2022-10-17T18:01:25.009Z,15.3
2022-10-17T18:16:24.924Z,15.2
2022-10-17T18:31:24.994Z,15.1
2022-10-17T18:46:24.929Z,15
2022-10-17T19:01:24.962Z,14.9
2022-10-17T19:16:24.934Z,14.8
2022-10-17T19:31:26.940Z,14.8
2022-10-17T19:46:24.938Z,14.6
2022-10-17T20:01:24.977Z,14.6
2022-10-17T20:16:24.922Z,14.7
2022-10-17T20:31:24.937Z,14.6
2022-10-17T20:46:36.197Z,14.8
2022-10-17T21:01:24.957Z,14.6
2022-10-17T21:16:24.976Z,14.6
2022-10-17T21:31:24.926Z,14.6
2022-10-17T21:46:24.927Z,14.6
2022-10-17T22:01:25.003Z,14.5
2022-10-17T22:16:24.965Z,14.6
2022-10-17T22:31:24.934Z,14.6
2022-10-17T22:46:24.963Z,14.6
2022-10-17T23:01:24.978Z,14.7
2022-10-17T23:16:24.931Z,14.9
2022-10-17T23:31:24.994Z,14.9
2022-10-17T23:46:24.965Z,14.9
